Time;durP1;ratioP1;P1;durP2;ratioP2;P2;SDS_P1;SDS_P2;PMS_P1;PMS_P2;Temp;Humidity;BMP_temperature;BMP_pressure;BME280_temperature;BME280_humidity;BME280_pressure;Samples;Min_cycle;Max_cycle;Signal;HPM_P1;HPM_P2
2021/05/11 00:02:59;;;;;;;3.20;2.90;;;17.80;80.00;;;;;;6334857;28;20801;-63
2021/05/11 00:06:01;;;;;;;4.03;3.73;;;17.80;80.20;;;;;;6335193;28;20435;-64
2021/05/11 00:09:05;;;;;;;3.80;3.50;;;17.80;80.70;;;;;;6311934;28;20440;-64
2021/05/11 00:12:08;;;;;;;3.70;3.40;;;17.80;80.90;;;;;;6324434;28;20456;-63
2021/05/11 00:15:11;;;;;;;7.13;3.90;;;17.80;81.10;;;;;;6323944;28;20447;-63
2021/05/11 00:18:14;;;;;;;6.90;3.20;;;17.80;81.00;;;;;;6324265;28;20519;-63
2021/05/11 00:21:16;;;;;;;4.00;3.60;;;17.80;81.30;;;;;;6323993;28;20456;-63
2021/05/11 00:24:20;;;;;;;3.87;3.57;;;17.80;81.60;;;;;;6323743;28;20483;-63
2021/05/11 00:27:22;;;;;;;4.73;3.67;;;17.80;81.80;;;;;;6323877;28;20460;-63
2021/05/11 00:30:24;;;;;;;3.67;3.40;;;17.80;82.00;;;;;;6323871;28;20464;-63
2021/05/11 00:33:26;;;;;;;3.93;3.40;;;17.70;82.10;;;;;;6323572;28;20957;-63
2021/05/11 00:36:28;;;;;;;4.27;3.70;;;17.70;82.60;;;;;;6323954;28;20471;-63
2021/05/11 00:39:32;;;;;;;4.50;3.70;;;17.60;82.90;;;;;;6323574;28;20972;-63
2021/05/11 00:42:34;;;;;;;3.70;3.40;;;17.60;83.10;;;;;;6323426;28;20558;-63
2021/05/11 00:45:36;;;;;;;4.57;3.47;;;17.50;83.20;;;;;;6323946;28;20468;-63
2021/05/11 00:48:39;;;;;;;3.37;3.13;;;17.50;83.60;;;;;;6323327;28;20463;-63
2021/05/11 00:51:42;;;;;;;4.00;3.60;;;17.50;83.50;;;;;;6323577;28;20558;-63
2021/05/11 00:54:48;;;;;;;4.47;3.47;;;17.40;84.20;;;;;;6323748;28;20606;-63
2021/05/11 00:57:50;;;;;;;3.70;3.30;;;17.30;84.30;;;;;;6324771;28;20473;-63
2021/05/11 01:00:52;;;;;;;3.70;3.40;;;17.30;85.70;;;;;;6327855;28;21229;-63
2021/05/11 01:03:54;;;;;;;4.00;3.43;;;17.20;85.10;;;;;;6328074;28;20467;-63
2021/05/11 01:06:57;;;;;;;3.83;3.47;;;17.20;85.20;;;;;;6328091;28;20463;-63
2021/05/11 01:10:00;;;;;;;4.17;3.43;;;17.10;85.50;;;;;;6328293;28;20536;-63
2021/05/11 01:13:03;;;;;;;3.40;3.20;;;17.10;86.20;;;;;;6313818;28;20472;-63
2021/05/11 01:16:05;;;;;;;3.73;3.43;;;17.10;86.50;;;;;;6327840;28;20468;-63
2021/05/11 01:19:12;;;;;;;3.30;3.10;;;17.00;86.80;;;;;;6327847;28;20464;-63
2021/05/11 01:25:32;;;;;;;3.50;3.20;;;17.00;87.30;;;;;;6319123;28;20468;-63
2021/05/11 01:28:44;;;;;;;6.13;3.93;;;16.90;87.90;;;;;;6327673;28;20798;-63
2021/05/11 01:32:13;;;;;;;4.50;3.50;;;16.90;88.30;;;;;;6327460;28;20472;-63
2021/05/11 01:48:45;;;;;;;3.90;3.50;;;16.60;89.40;;;;;;6326933;28;20487;-63
2021/05/11 01:52:11;;;;;;;4.80;3.73;;;16.60;89.90;;;;;;6326913;28;20475;-63
2021/05/11 01:58:58;;;;;;;5.10;3.67;;;16.50;90.30;;;;;;6326646;28;20980;-63
2021/05/11 02:25:29;;;;;;;3.60;3.30;;;16.00;91.70;;;;;;6326510;28;20469;-63
2021/05/11 02:28:32;;;;;;;4.03;3.63;;;16.00;92.10;;;;;;6326137;28;20961;-63
2021/05/11 02:31:34;;;;;;;4.13;3.73;;;16.00;92.20;;;;;;6326095;28;20472;-63
2021/05/11 02:34:36;;;;;;;4.33;3.43;;;16.00;92.40;;;;;;6325817;28;20467;-63
2021/05/11 02:37:39;;;;;;;4.13;3.73;;;16.00;92.30;;;;;;6325901;28;20805;-63
2021/05/11 02:40:42;;;;;;;4.17;3.87;;;16.00;92.30;;;;;;6325818;28;20479;-63
2021/05/11 02:43:45;;;;;;;4.50;3.60;;;16.00;92.30;;;;;;6325518;28;20472;-63
2021/05/11 02:46:47;;;;;;;4.20;3.80;;;16.00;92.40;;;;;;6325217;28;20961;-63
2021/05/11 02:49:51;;;;;;;3.90;3.60;;;15.90;92.40;;;;;;6325486;28;20563;-63
2021/05/11 02:52:53;;;;;;;5.13;3.83;;;15.90;92.60;;;;;;6325592;28;20472;-63
2021/05/11 02:55:55;;;;;;;6.07;5.47;;;15.90;92.70;;;;;;6325355;28;20893;-63
2021/05/11 02:58:59;;;;;;;3.40;3.10;;;15.80;92.70;;;;;;6325781;28;20479;-63
2021/05/11 03:02:01;;;;;;;3.40;3.20;;;15.80;92.70;;;;;;6324928;28;20476;-64
2021/05/11 03:05:05;;;;;;;4.17;3.77;;;15.80;93.00;;;;;;6325443;28;20468;-66
2021/05/11 03:08:07;;;;;;;4.33;4.03;;;15.70;93.00;;;;;;6325058;28;20471;-67
2021/05/11 03:11:09;;;;;;;6.30;3.60;;;15.70;93.10;;;;;;6325125;28;20472;-68
2021/05/11 03:14:12;;;;;;;3.80;3.50;;;15.60;93.10;;;;;;6325420;28;20475;-63
2021/05/11 03:17:14;;;;;;;3.57;3.37;;;15.60;93.40;;;;;;6324847;28;20468;-63
2021/05/11 03:20:17;;;;;;;4.93;3.73;;;15.60;93.40;;;;;;6320056;28;20812;-63
2021/05/11 03:23:19;;;;;;;4.67;3.07;;;15.60;93.50;;;;;;6324662;28;20478;-63
2021/05/11 03:26:21;;;;;;;5.10;3.77;;;15.60;93.70;;;;;;6325052;28;20472;-63
2021/05/11 03:29:25;;;;;;;3.40;3.10;;;15.50;93.60;;;;;;6324403;28;20486;-63
2021/05/11 03:32:27;;;;;;;6.63;3.60;;;15.50;93.80;;;;;;6324662;28;20472;-63
2021/05/11 03:35:29;;;;;;;3.63;3.33;;;15.40;93.80;;;;;;6324395;28;20964;-63
2021/05/11 03:38:31;;;;;;;4.07;3.60;;;15.50;93.90;;;;;;6324609;28;20472;-64
2021/05/11 03:41:37;;;;;;;4.40;3.33;;;15.50;94.00;;;;;;6329497;28;20467;-64
2021/05/11 03:44:42;;;;;;;4.13;3.70;;;15.50;94.00;;;;;;6349719;27;20483;-68
2021/05/11 03:47:48;;;;;;;5.63;3.90;;;15.50;94.10;;;;;;6349660;27;20478;-68
2021/05/11 03:50:51;;;;;;;4.43;3.60;;;15.40;93.70;;;;;;6349749;27;20600;-64
2021/05/11 03:53:53;;;;;;;3.47;3.20;;;15.40;94.00;;;;;;6349632;27;20489;-63
2021/05/11 03:56:56;;;;;;;3.87;3.60;;;15.50;94.10;;;;;;6348813;27;20452;-64
2021/05/11 04:00:00;;;;;;;3.60;3.30;;;15.50;94.10;;;;;;6349286;27;20459;-66
2021/05/11 04:03:02;;;;;;;3.67;3.17;;;15.50;94.10;;;;;;6349552;27;20479;-64
2021/05/11 04:06:06;;;;;;;4.10;3.70;;;15.50;94.20;;;;;;6349896;27;20447;-63
2021/05/11 04:09:13;;;;;;;3.93;3.30;;;15.60;94.10;;;;;;6349486;27;20442;-64
2021/05/11 04:18:58;;;;;;;6.03;4.07;;;15.90;93.60;;;;;;6349128;27;20463;-69
2021/05/11 04:22:00;;;;;;;5.40;3.90;;;16.00;93.30;;;;;;6349462;27;20467;-68
2021/05/11 04:25:03;;;;;;;4.30;3.30;;;16.10;93.30;;;;;;6334996;27;20475;-68
2021/05/11 04:28:06;;;;;;;6.40;3.73;;;16.20;93.20;;;;;;6349283;27;20471;-68
2021/05/11 04:31:10;;;;;;;6.47;3.83;;;16.30;92.90;;;;;;6349003;27;20475;-67
2021/05/11 04:34:12;;;;;;;4.70;3.23;;;16.50;92.70;;;;;;6352514;27;20467;-67
2021/05/11 04:37:15;;;;;;;4.10;3.40;;;16.60;92.50;;;;;;6354130;27;20482;-68
2021/05/11 04:40:18;;;;;;;3.60;3.27;;;16.70;92.30;;;;;;6353707;27;20520;-69
2021/05/11 04:43:25;;;;;;;3.90;3.40;;;16.80;92.00;;;;;;6354184;27;20479;-68
2021/05/11 04:46:40;;;;;;;4.53;3.30;;;16.90;91.80;;;;;;6354303;27;20471;-68
2021/05/11 04:49:42;;;;;;;4.07;3.77;;;17.10;91.50;;;;;;6354022;27;20956;-68
2021/05/11 04:52:45;;;;;;;4.37;3.97;;;17.20;91.10;;;;;;6353855;27;20478;-69
2021/05/11 04:55:48;;;;;;;4.87;4.47;;;17.30;91.20;;;;;;6353982;27;20504;-69
2021/05/11 04:58:51;;;;;;;4.83;3.60;;;17.40;90.90;;;;;;6353805;27;20963;-68
2021/05/11 05:01:56;;;;;;;7.60;4.10;;;17.40;90.80;;;;;;6353580;27;20471;-69
2021/05/11 05:05:01;;;;;;;6.07;4.83;;;17.60;90.50;;;;;;6353464;27;20486;-68
2021/05/11 05:08:04;;;;;;;5.40;3.63;;;17.70;90.80;;;;;;6353620;27;20486;-68
2021/05/11 05:11:07;;;;;;;5.80;4.87;;;17.90;90.40;;;;;;6353432;27;20486;-68
2021/05/11 05:14:10;;;;;;;5.40;3.50;;;18.00;90.20;;;;;;6353374;27;21009;-68
2021/05/11 05:17:14;;;;;;;3.83;3.33;;;18.20;89.80;;;;;;6353623;27;20853;-68
2021/05/11 05:20:17;;;;;;;5.87;3.87;;;18.30;89.90;;;;;;6353203;27;20555;-69
2021/05/11 05:23:22;;;;;;;6.13;3.70;;;18.50;89.40;;;;;;6353037;27;20982;-67
2021/05/11 05:26:27;;;;;;;5.87;3.77;;;18.50;88.60;;;;;;6352945;27;20459;-69
2021/05/11 05:29:30;;;;;;;8.20;4.63;;;18.70;88.80;;;;;;6343804;27;20479;-69
2021/05/11 05:32:34;;;;;;;6.20;3.70;;;18.90;88.50;;;;;;6353571;27;20225;-69
2021/05/11 05:35:36;;;;;;;4.43;4.03;;;19.00;88.10;;;;;;6353094;27;20477;-68
2021/05/11 05:38:41;;;;;;;3.60;3.30;;;19.20;87.90;;;;;;6352862;27;20563;-69
2021/05/11 05:41:44;;;;;;;7.50;3.57;;;19.40;85.70;;;;;;6352438;27;20253;-64
2021/05/11 05:44:46;;;;;;;5.73;3.67;;;19.70;84.90;;;;;;6350589;27;20238;-63
2021/05/11 05:47:53;;;;;;;5.70;3.53;;;20.10;83.00;;;;;;6352651;27;20243;-63
2021/05/11 05:50:58;;;;;;;4.97;3.70;;;20.70;81.00;;;;;;6351962;27;20229;-64
2021/05/11 05:54:00;;;;;;;5.07;4.00;;;21.10;75.10;;;;;;6354234;27;20198;-68
2021/05/11 05:57:06;;;;;;;4.87;3.57;;;21.70;72.60;;;;;;6352447;27;20205;-67
2021/05/11 06:00:12;;;;;;;4.43;4.07;;;22.10;69.30;;;;;;6352121;27;20233;-64
2021/05/11 06:03:36;;;;;;;4.23;3.80;;;22.30;68.50;;;;;;6352077;27;20225;-64
2021/05/11 06:06:40;;;;;;;5.93;3.70;;;22.80;66.50;;;;;;6352129;27;20236;-64
2021/05/11 06:09:43;;;;;;;5.63;3.73;;;23.40;63.30;;;;;;6352130;27;20234;-63
2021/05/11 06:12:49;;;;;;;6.30;4.37;;;24.00;61.90;;;;;;6351525;27;20728;-63
2021/05/11 06:19:13;;;;;;;6.00;4.50;;;24.20;59.10;;;;;;6349532;27;20237;-63
2021/05/11 06:22:17;;;;;;;7.37;4.00;;;25.00;58.20;;;;;;6349431;27;20673;-63
2021/05/11 06:25:20;;;;;;;7.10;5.40;;;25.20;57.10;;;;;;6349667;27;20244;-63
2021/05/11 06:28:23;;;;;;;8.37;4.83;;;25.90;56.60;;;;;;6349668;27;20225;-63
2021/05/11 06:31:26;;;;;;;4.87;4.40;;;26.50;54.40;;;;;;6345625;27;20585;-64
2021/05/11 06:34:30;;;;;;;5.93;3.70;;;27.00;52.60;;;;;;6351296;27;20236;-64
2021/05/11 06:37:33;;;;;;;8.30;3.80;;;27.50;51.00;;;;;;6351047;27;20229;-64
2021/05/11 06:40:38;;;;;;;4.73;3.73;;;28.40;49.10;;;;;;6351033;27;20237;-69
2021/05/11 06:43:43;;;;;;;6.33;3.70;;;28.60;47.30;;;;;;6350835;27;20230;-68
2021/05/11 06:50:25;;;;;;;5.10;3.97;;;29.70;45.40;;;;;;6336385;28;20230;-64
2021/05/11 06:53:27;;;;;;;5.47;4.03;;;30.60;43.30;;;;;;6325525;28;20244;-68
2021/05/11 06:56:31;;;;;;;5.03;3.73;;;31.30;41.90;;;;;;6332233;28;20213;-64
2021/05/11 06:59:34;;;;;;;4.03;3.70;;;32.00;40.40;;;;;;6345495;28;20248;-69
2021/05/11 07:02:36;;;;;;;6.97;3.55;;;32.20;38.50;;;;;;6336891;27;20232;-65
2021/05/11 07:05:41;;;;;;;4.55;4.13;;;32.70;37.50;;;;;;6334896;27;20252;-65
2021/05/11 07:08:46;;;;;;;5.38;3.50;;;33.00;37.20;;;;;;6328055;28;20314;-65
2021/05/11 07:15:11;;;;;;;6.68;4.43;;;33.50;35.60;;;;;;6332960;28;20225;-68
2021/05/11 07:18:16;;;;;;;5.57;3.80;;;34.70;34.40;;;;;;6327995;28;20198;-64
2021/05/11 07:21:20;;;;;;;8.38;3.97;;;34.70;32.90;;;;;;6334329;28;20244;-64
2021/05/11 07:24:26;;;;;;;4.65;3.88;;;34.20;34.10;;;;;;6336234;27;20678;-65
2021/05/11 07:27:48;;;;;;;4.55;3.72;;;34.80;33.10;;;;;;6325209;28;20678;-64
2021/05/11 07:30:51;;;;;;;4.25;3.38;;;35.40;32.20;;;;;;6324579;28;20229;-67
2021/05/11 07:33:55;;;;;;;4.20;3.42;;;36.80;30.10;;;;;;6325158;28;20221;-64
2021/05/11 07:36:59;;;;;;;4.93;3.65;;;37.00;29.20;;;;;;6320156;28;20229;-67
2021/05/11 07:40:03;;;;;;;6.07;3.70;;;38.50;28.20;;;;;;6324780;28;20243;-68
2021/05/11 07:43:06;;;;;;;4.10;3.08;;;39.50;27.40;;;;;;6324005;28;20229;-70
2021/05/11 07:46:23;;;;;;;6.85;3.33;;;40.70;26.60;;;;;;6338442;27;20225;-70
2021/05/11 08:16:22;;;;;;;3.08;2.70;;;39.50;25.90;;;;;;6323806;28;20658;-66
2021/05/11 08:19:40;;;;;;;3.45;3.15;;;40.30;25.50;;;;;;6341446;27;20233;-65
2021/05/11 08:23:00;;;;;;;3.83;3.08;;;39.00;25.60;;;;;;6349303;27;20229;-65
2021/05/11 08:29:25;;;;;;;4.05;3.00;;;37.30;27.60;;;;;;6348628;27;20233;-65
2021/05/11 08:32:27;;;;;;;4.38;3.00;;;36.40;27.50;;;;;;6349264;27;20228;-69
2021/05/11 08:35:30;;;;;;;3.13;2.80;;;35.30;28.80;;;;;;6348982;27;20305;-69
2021/05/11 08:38:33;;;;;;;4.90;3.00;;;34.70;29.20;;;;;;6349180;27;20235;-66
2021/05/11 08:41:36;;;;;;;2.85;2.65;;;34.00;30.00;;;;;;6343925;27;20232;-63
2021/05/11 08:44:40;;;;;;;6.60;3.97;;;33.20;31.00;;;;;;6348415;27;20232;-69
2021/05/11 08:47:50;;;;;;;4.95;3.00;;;32.70;32.20;;;;;;6348977;27;20746;-68
2021/05/11 08:50:58;;;;;;;3.13;2.88;;;32.00;33.40;;;;;;6348495;27;20705;-68
2021/05/11 09:04:40;;;;;;;5.00;3.30;;;30.40;35.90;;;;;;6296579;28;20223;-65
2021/05/11 09:08:01;;;;;;;4.10;3.30;;;30.10;36.20;;;;;;6323650;28;20232;-72
2021/05/11 09:27:55;;;;;;;5.13;3.10;;;29.40;35.10;;;;;;6352633;27;20236;-69
2021/05/11 09:31:10;;;;;;;6.70;3.30;;;29.30;35.50;;;;;;6351948;27;20264;-69
2021/05/11 09:34:24;;;;;;;2.63;2.30;;;29.10;35.40;;;;;;6352503;27;20877;-65
2021/05/11 09:51:59;;;;;;;2.30;2.03;;;28.90;33.50;;;;;;6352121;27;20236;-69
2021/05/11 09:55:02;;;;;;;3.30;1.80;;;28.70;34.20;;;;;;6327038;28;20230;-67
2021/05/11 09:58:21;;;;;;;4.53;2.63;;;28.50;34.60;;;;;;6326702;28;20241;-60
2021/05/11 10:36:49;;;;;;;2.27;2.10;;;28.20;34.70;;;;;;6351686;27;20217;-71
2021/05/11 10:47:03;;;;;;;3.60;2.37;;;28.10;35.10;;;;;;6350434;27;20221;-63
2021/05/11 10:50:27;;;;;;;2.83;2.07;;;28.30;35.00;;;;;;6341191;27;20229;-67
2021/05/11 10:54:01;;;;;;;2.20;2.00;;;28.50;34.50;;;;;;6350311;27;20763;-67
2021/05/11 10:57:29;;;;;;;3.93;2.00;;;28.40;34.70;;;;;;6350783;27;20201;-66
2021/05/11 11:00:40;;;;;;;3.00;1.67;;;28.20;35.00;;;;;;6350170;27;20237;-67
2021/05/11 11:04:13;;;;;;;2.67;2.23;;;28.20;35.10;;;;;;6350815;27;20224;-67
2021/05/11 11:07:16;;;;;;;4.40;1.93;;;28.50;35.40;;;;;;6350439;27;20252;-66
2021/05/11 11:10:29;;;;;;;2.40;2.20;;;28.40;35.20;;;;;;6350066;27;20233;-65
2021/05/11 11:13:33;;;;;;;3.50;2.43;;;28.50;34.90;;;;;;6337942;28;20235;-65
2021/05/11 11:16:36;;;;;;;5.30;2.30;;;28.40;34.50;;;;;;6335636;28;20236;-65
2021/05/11 11:19:39;;;;;;;2.33;2.03;;;28.50;34.90;;;;;;6328916;28;20229;-64
2021/05/11 11:26:25;;;;;;;3.80;2.40;;;28.60;34.70;;;;;;6350022;27;20229;-65
2021/05/11 11:29:28;;;;;;;4.83;2.53;;;28.80;34.70;;;;;;6349323;27;20243;-65
2021/05/11 11:32:31;;;;;;;4.40;1.90;;;28.80;34.20;;;;;;6349754;27;20234;-64
2021/05/11 11:35:34;;;;;;;2.63;2.20;;;28.80;33.90;;;;;;6349477;27;20303;-63
2021/05/11 11:38:37;;;;;;;4.50;2.13;;;28.90;34.90;;;;;;6349672;27;20573;-64
2021/05/11 11:41:41;;;;;;;2.30;2.10;;;28.80;34.40;;;;;;6349347;27;20228;-64
2021/05/11 11:44:46;;;;;;;4.57;2.63;;;28.80;34.00;;;;;;6349463;27;20221;-65
2021/05/11 11:47:55;;;;;;;2.40;2.20;;;28.80;34.30;;;;;;6346064;28;20224;-64
2021/05/11 11:51:02;;;;;;;4.60;2.00;;;28.80;34.30;;;;;;6349619;28;20216;-70
2021/05/11 11:54:15;;;;;;;4.60;2.17;;;28.70;34.90;;;;;;6348826;27;20223;-68
2021/05/11 12:00:44;;;;;;;3.73;2.47;;;28.70;34.50;;;;;;6349535;27;20225;-65
2021/05/11 12:03:55;;;;;;;2.70;2.50;;;28.80;34.50;;;;;;6349604;27;20665;-70
2021/05/11 12:07:03;;;;;;;3.27;2.30;;;28.80;34.90;;;;;;6349294;27;20248;-66
2021/05/11 12:10:07;;;;;;;2.53;2.30;;;28.90;35.20;;;;;;6348751;27;20225;-69
2021/05/11 12:13:13;;;;;;;2.70;1.93;;;29.10;34.60;;;;;;6348783;27;20571;-69
2021/05/11 12:16:17;;;;;;;2.67;2.20;;;29.20;34.00;;;;;;6349158;27;20666;-68
2021/05/11 12:19:27;;;;;;;2.50;2.30;;;29.30;34.20;;;;;;6348623;27;20223;-68
2021/05/11 12:22:30;;;;;;;3.97;3.57;;;29.30;33.90;;;;;;6348996;27;20252;-70
2021/05/11 12:25:33;;;;;;;4.17;2.47;;;29.20;34.70;;;;;;6348833;27;20228;-70
2021/05/11 12:28:38;;;;;;;3.20;2.10;;;29.10;34.50;;;;;;6335135;28;20232;-73
2021/05/11 12:31:42;;;;;;;3.63;2.47;;;29.10;34.00;;;;;;6339836;27;20233;-72
2021/05/11 12:35:01;;;;;;;2.87;2.50;;;29.10;34.10;;;;;;6337644;27;20281;-75
2021/05/11 12:38:16;;;;;;;2.97;2.63;;;29.30;34.10;;;;;;6346901;27;20221;-65
2021/05/11 12:41:32;;;;;;;2.37;2.07;;;29.30;34.60;;;;;;6347071;27;20248;-69
2021/05/11 12:44:36;;;;;;;3.20;2.10;;;29.30;35.70;;;;;;6348593;27;20229;-71
2021/05/11 12:47:45;;;;;;;3.03;2.40;;;29.50;35.10;;;;;;6339206;27;20581;-66
2021/05/11 12:50:48;;;;;;;6.67;2.70;;;29.60;34.70;;;;;;6348631;27;20283;-68
2021/05/11 12:53:51;;;;;;;5.90;2.43;;;29.70;34.30;;;;;;6349165;27;20232;-69
2021/05/11 12:57:08;;;;;;;3.70;2.80;;;29.80;34.70;;;;;;6353920;27;20615;-70
2021/05/11 13:00:16;;;;;;;5.03;2.30;;;29.80;35.10;;;;;;6353377;27;20547;-68
2021/05/11 13:03:40;;;;;;;4.23;2.53;;;29.50;34.70;;;;;;6353646;27;20193;-68
2021/05/11 13:17:00;;;;;;;2.30;2.10;;;29.50;36.00;;;;;;6328554;27;20306;-70
2021/05/11 13:20:17;;;;;;;2.60;2.40;;;29.30;35.70;;;;;;6352930;27;20304;-68
2021/05/11 13:25:05;;;;;;;3.30;2.23;;;29.30;36.00;;;;;;6328312;28;20226;-67
2021/05/11 13:26:47;;;;;;;2.80;2.60;;;29.30;36.10;;;;;;6327165;28;20309;-70
2021/05/11 13:30:03;;;;;;;3.90;2.33;;;29.30;36.00;;;;;;6327342;28;20729;-71
2021/05/11 13:33:15;;;;;;;5.33;3.30;;;29.30;36.10;;;;;;6327121;28;20244;-66
2021/05/11 13:36:18;;;;;;;3.60;2.47;;;29.20;36.10;;;;;;6327834;28;20196;-68
2021/05/11 13:39:21;;;;;;;4.40;2.77;;;28.90;36.00;;;;;;6327093;28;20290;-70
2021/05/11 13:42:26;;;;;;;4.97;3.13;;;28.60;36.50;;;;;;6326943;28;20228;-68
2021/05/11 13:45:29;;;;;;;3.10;2.60;;;28.60;36.60;;;;;;6326966;28;20579;-68
2021/05/11 13:48:35;;;;;;;3.60;2.63;;;28.70;36.20;;;;;;6352452;27;20576;-67
2021/05/11 13:51:38;;;;;;;4.53;2.87;;;28.60;36.30;;;;;;6350042;27;20229;-67
2021/05/11 13:54:41;;;;;;;2.90;2.70;;;28.60;36.40;;;;;;6327368;28;20253;-67
2021/05/11 14:01:39;;;;;;;2.97;2.50;;;28.50;37.00;;;;;;6347486;27;20237;-67
2021/05/11 14:04:43;;;;;;;6.00;2.40;;;28.50;36.60;;;;;;6351524;27;20289;-68
2021/05/11 14:07:45;;;;;;;2.67;2.47;;;28.50;36.60;;;;;;6350613;27;20229;-69
2021/05/11 14:10:48;;;;;;;2.83;2.40;;;28.30;36.40;;;;;;6351642;27;20593;-64
2021/05/11 14:13:51;;;;;;;4.20;2.37;;;28.10;36.50;;;;;;6329917;28;20351;-69
2021/05/11 14:16:54;;;;;;;3.67;2.87;;;28.30;36.80;;;;;;6326141;28;20249;-72
2021/05/11 14:20:04;;;;;;;3.20;2.33;;;28.20;36.60;;;;;;6330363;28;20225;-72
2021/05/11 14:23:07;;;;;;;3.60;3.03;;;28.20;36.70;;;;;;6331283;28;20213;-65
2021/05/11 14:26:09;;;;;;;2.87;2.57;;;28.10;36.50;;;;;;6351421;27;20236;-62
2021/05/11 14:29:12;;;;;;;3.90;2.90;;;28.10;36.40;;;;;;6350965;27;20233;-65
2021/05/11 14:32:15;;;;;;;4.67;2.53;;;28.00;36.40;;;;;;6352100;27;20239;-65
2021/05/11 14:35:19;;;;;;;5.63;2.83;;;28.10;36.40;;;;;;6351229;27;20236;-65
2021/05/11 14:38:21;;;;;;;2.97;2.27;;;28.20;36.30;;;;;;6325425;28;20348;-66
2021/05/11 14:41:24;;;;;;;2.40;2.13;;;28.30;36.30;;;;;;6325467;28;20306;-62
2021/05/11 14:44:28;;;;;;;2.53;2.33;;;28.30;36.00;;;;;;6325200;28;20312;-66
2021/05/11 14:47:30;;;;;;;2.60;2.40;;;28.10;36.50;;;;;;6342834;28;20555;-66
2021/05/11 14:50:34;;;;;;;3.40;2.20;;;27.80;36.60;;;;;;6350388;27;20225;-62
2021/05/11 14:53:38;;;;;;;2.97;2.47;;;27.60;36.80;;;;;;6350092;27;20303;-62
2021/05/11 14:56:41;;;;;;;3.10;2.33;;;27.50;37.30;;;;;;6338479;27;20229;-63
2021/05/11 14:59:43;;;;;;;5.73;2.40;;;27.60;37.00;;;;;;6335960;28;20255;-63
2021/05/11 15:02:46;;;;;;;3.20;2.40;;;27.60;36.50;;;;;;6333426;28;20305;-63
2021/05/11 15:05:50;;;;;;;3.40;1.93;;;27.50;36.50;;;;;;6324878;28;20234;-63
2021/05/11 15:08:53;;;;;;;3.40;3.07;;;27.60;36.40;;;;;;6325356;28;20225;-63
2021/05/11 15:11:55;;;;;;;3.97;2.30;;;27.60;36.10;;;;;;6324444;28;20225;-62
2021/05/11 15:14:58;;;;;;;3.97;2.23;;;27.50;35.50;;;;;;6324984;28;20629;-62
2021/05/11 15:18:05;;;;;;;3.87;2.30;;;27.50;35.90;;;;;;6324101;28;20235;-63
2021/05/11 15:21:08;;;;;;;2.73;1.93;;;27.50;35.50;;;;;;6348612;27;20674;-62
2021/05/11 15:24:12;;;;;;;3.23;1.80;;;27.20;35.70;;;;;;6350398;27;20201;-62
2021/05/11 15:27:15;;;;;;;4.57;2.00;;;27.10;35.50;;;;;;6349854;27;20217;-63
2021/05/11 15:30:25;;;;;;;4.13;1.90;;;26.90;35.90;;;;;;6349896;27;20764;-68
2021/05/11 15:33:28;;;;;;;2.90;1.97;;;26.90;36.20;;;;;;6349894;27;20274;-69
2021/05/11 15:36:31;;;;;;;2.23;1.80;;;27.10;35.40;;;;;;6350939;27;20276;-68
2021/05/11 15:39:34;;;;;;;3.43;1.83;;;27.20;35.60;;;;;;6349364;27;20573;-68
2021/05/11 15:42:36;;;;;;;3.90;2.10;;;27.20;35.70;;;;;;6349482;27;20654;-69
2021/05/11 15:45:39;;;;;;;6.53;2.10;;;27.30;36.00;;;;;;6332163;28;20229;-68
2021/05/11 15:48:42;;;;;;;3.83;2.50;;;27.40;35.10;;;;;;6345718;27;20225;-69
2021/05/11 15:51:46;;;;;;;5.17;1.80;;;27.40;34.00;;;;;;6345168;27;20253;-69
2021/05/11 15:54:50;;;;;;;3.93;1.80;;;27.10;33.00;;;;;;6322513;28;20240;-67
2021/05/11 15:57:52;;;;;;;2.87;2.03;;;26.90;33.90;;;;;;6335213;27;20233;-68
2021/05/11 16:00:55;;;;;;;4.73;2.20;;;26.80;33.90;;;;;;6347819;27;20235;-69
2021/05/11 16:03:58;;;;;;;5.20;2.40;;;26.90;35.20;;;;;;6347565;27;20229;-69
2021/05/11 16:07:01;;;;;;;4.90;1.70;;;26.90;35.10;;;;;;6347904;27;20236;-67
2021/05/11 16:10:06;;;;;;;2.70;2.30;;;26.90;34.90;;;;;;6338259;27;20244;-64
2021/05/11 16:13:10;;;;;;;3.70;1.67;;;26.70;35.50;;;;;;6347979;27;20228;-64
2021/05/11 16:16:16;;;;;;;4.90;2.00;;;26.80;35.80;;;;;;6349021;27;20256;-67
2021/05/11 16:19:21;;;;;;;4.53;2.27;;;26.60;36.10;;;;;;6345100;27;20236;-63
2021/05/11 16:22:24;;;;;;;7.30;1.77;;;26.60;36.00;;;;;;6324110;28;20233;-60
2021/05/11 16:25:31;;;;;;;2.40;2.17;;;26.40;36.00;;;;;;6323747;28;20309;-60
2021/05/11 16:28:37;;;;;;;2.37;1.80;;;26.20;36.10;;;;;;6324564;28;20237;-62
2021/05/11 16:31:40;;;;;;;3.87;2.50;;;26.10;36.40;;;;;;6328711;28;20230;-61
2021/05/11 16:34:43;;;;;;;4.33;2.20;;;26.00;36.50;;;;;;6328904;27;20229;-61
2021/05/11 16:37:47;;;;;;;2.63;2.20;;;26.10;36.60;;;;;;6328901;28;20331;-61
2021/05/11 16:40:52;;;;;;;2.50;2.00;;;26.10;36.90;;;;;;6328987;28;20374;-61
2021/05/11 16:43:57;;;;;;;2.60;2.10;;;26.10;37.00;;;;;;6327873;28;20237;-61
2021/05/11 16:46:59;;;;;;;4.03;2.40;;;26.10;37.10;;;;;;6341771;28;20218;-62
2021/05/11 16:50:03;;;;;;;3.43;2.20;;;26.10;37.50;;;;;;6353373;27;20286;-59
2021/05/11 16:53:08;;;;;;;3.37;2.00;;;26.00;37.70;;;;;;6353813;27;20354;-60
2021/05/11 16:56:10;;;;;;;3.70;2.33;;;25.90;38.10;;;;;;6353618;27;20248;-61
2021/05/11 16:59:14;;;;;;;4.23;2.50;;;25.90;38.10;;;;;;6353406;27;20239;-61
2021/05/11 17:02:16;;;;;;;2.93;2.63;;;25.70;38.30;;;;;;6353154;27;20220;-58
2021/05/11 17:05:21;;;;;;;2.90;2.70;;;25.70;38.60;;;;;;6353142;27;20225;-59
2021/05/11 17:08:24;;;;;;;5.23;2.30;;;25.70;38.50;;;;;;6353452;27;20240;-59
2021/05/11 17:11:31;;;;;;;2.10;1.90;;;25.70;38.60;;;;;;6351266;27;20233;-59
2021/05/11 17:14:33;;;;;;;2.47;2.17;;;25.70;38.80;;;;;;6323316;28;20283;-59
2021/05/11 17:17:36;;;;;;;3.63;2.30;;;25.60;39.10;;;;;;6327533;28;20244;-60
2021/05/11 17:20:39;;;;;;;3.03;2.30;;;25.70;39.20;;;;;;6342270;28;20572;-59
2021/05/11 17:23:43;;;;;;;5.73;2.50;;;25.70;39.20;;;;;;6352774;27;20238;-61
2021/05/11 17:26:45;;;;;;;2.53;2.27;;;25.70;39.30;;;;;;6352259;27;20221;-63
2021/05/11 17:29:51;;;;;;;4.30;2.33;;;25.50;39.60;;;;;;6350771;27;20308;-60
2021/05/11 17:32:55;;;;;;;4.47;2.70;;;25.50;39.60;;;;;;6351502;27;20221;-61
2021/05/11 17:35:58;;;;;;;2.90;2.63;;;25.30;40.60;;;;;;6351130;27;20229;-62
2021/05/11 17:39:02;;;;;;;4.00;2.67;;;25.20;40.10;;;;;;6351011;27;20239;-65
2021/05/11 17:42:08;;;;;;;5.27;2.60;;;25.20;40.30;;;;;;6350809;27;20213;-64
2021/05/11 17:45:12;;;;;;;3.40;2.20;;;25.10;40.40;;;;;;6351983;27;20233;-63
2021/05/11 17:48:15;;;;;;;5.80;2.57;;;25.10;40.60;;;;;;6343798;28;20558;-64
2021/05/11 17:51:20;;;;;;;4.53;2.90;;;25.10;40.70;;;;;;6327114;28;20222;-64
2021/05/11 17:54:24;;;;;;;4.03;2.70;;;25.10;40.80;;;;;;6351832;27;20225;-65
2021/05/11 17:57:27;;;;;;;3.30;2.87;;;25.00;41.10;;;;;;6352099;27;20236;-63
2021/05/11 18:00:31;;;;;;;3.77;2.97;;;25.00;41.40;;;;;;6352055;27;20248;-63
2021/05/11 18:03:34;;;;;;;3.77;3.17;;;24.90;41.70;;;;;;6350245;27;20247;-63
2021/05/11 18:06:37;;;;;;;2.67;2.47;;;24.90;41.80;;;;;;6352152;27;20551;-62
2021/05/11 18:09:40;;;;;;;5.70;2.30;;;24.90;42.00;;;;;;6351424;27;20678;-62
2021/05/11 18:12:43;;;;;;;3.27;2.90;;;25.00;42.80;;;;;;6351764;27;20690;-62
2021/05/11 18:15:46;;;;;;;3.00;2.80;;;24.90;42.50;;;;;;6351650;27;20239;-64
2021/05/11 18:18:49;;;;;;;3.87;3.17;;;24.90;42.80;;;;;;6351496;27;20635;-63
2021/05/11 18:21:52;;;;;;;5.23;2.90;;;24.90;43.20;;;;;;6326549;28;20262;-63
2021/05/11 18:24:56;;;;;;;2.83;2.63;;;25.00;43.40;;;;;;6326310;28;20236;-62
2021/05/11 18:28:00;;;;;;;5.20;3.33;;;25.00;43.40;;;;;;6325947;28;20542;-63
2021/05/11 18:31:04;;;;;;;5.13;3.50;;;25.00;43.50;;;;;;6326689;28;20230;-65
2021/05/11 18:34:07;;;;;;;5.67;3.53;;;24.90;45.00;;;;;;6326034;28;20570;-64
2021/05/11 18:37:17;;;;;;;4.73;3.10;;;25.00;44.50;;;;;;6325612;28;20222;-64
2021/05/11 18:40:21;;;;;;;3.57;3.27;;;25.00;45.10;;;;;;6326072;28;20295;-63
2021/05/11 18:43:24;;;;;;;4.20;3.37;;;25.00;45.90;;;;;;6325257;28;20245;-64
2021/05/11 18:46:27;;;;;;;4.47;3.40;;;24.90;46.70;;;;;;6334426;28;20232;-64
2021/05/11 18:49:30;;;;;;;4.23;3.83;;;24.80;46.30;;;;;;6350821;27;20326;-64
2021/05/11 18:52:33;;;;;;;5.10;3.10;;;24.90;46.70;;;;;;6349587;27;20231;-60
2021/05/11 18:55:39;;;;;;;4.20;3.80;;;24.80;47.00;;;;;;6350708;27;20690;-61
2021/05/11 18:58:42;;;;;;;3.83;3.30;;;24.80;47.40;;;;;;6351227;27;20233;-60
2021/05/11 19:01:44;;;;;;;5.53;3.67;;;24.80;48.10;;;;;;6350449;27;20237;-61
2021/05/11 19:04:47;;;;;;;2.97;2.77;;;24.70;48.70;;;;;;6350877;27;20362;-61
2021/05/11 19:07:50;;;;;;;4.07;3.63;;;24.60;49.10;;;;;;6350625;27;20229;-61
2021/05/11 19:10:53;;;;;;;3.97;3.67;;;24.60;49.30;;;;;;6343154;27;20230;-64
2021/05/11 19:13:57;;;;;;;4.07;3.70;;;24.70;49.40;;;;;;6324776;28;20236;-64
2021/05/11 19:16:59;;;;;;;3.57;3.10;;;24.60;49.70;;;;;;6324929;28;20236;-61
2021/05/11 19:20:04;;;;;;;3.40;3.10;;;24.60;49.90;;;;;;6324923;28;20240;-62
2021/05/11 19:23:07;;;;;;;3.53;3.20;;;24.60;50.10;;;;;;6315675;28;20230;-63